KPVD/PVD METAR and TAF weather

Enter ICAO airport designator
Station Type Date Time Source
KPVD METAR 2019/06/26 05:51 UTC NOAA

KPVD 260551Z 00000KT 3SM BR OVC004 20/19 A2992 RMK AO2 SFC VIS 6 SLP132 60001 T02000194 10200 20194 58000


Station Type Date Time Source
KPVD Decoded METAR 2019/06/26 05:51 UTC NOAA

PROVIDENCE GREEN STATE AIRPORT , RI, United States (KPVD) 41-44N 071-26W 16M
Jun 26, 2019 - 01:51 AM EDT / 2019.06.26 0551 UTC
Wind: Calm:0
Visibility: 3 mile(s):0
Sky conditions: overcast
Weather: mist
Temperature: 68.0 F (20.0 C)
Dew Point: 66.9 F (19.4 C)
Relative Humidity: 96%
Pressure (altimeter): 29.92 in. Hg (1013 hPa)
Pressure tendency: 0.00 inches (0.0 hPa) lower than three hours ago
ob: KPVD 260551Z 00000KT 3SM BR OVC004 20/19 A2992 RMK AO2 SFC VIS 6 SLP132 60001 T02000194 10200 20194 58000
cycle: 6

Station Type Date Time Source
KPVD TAF 2019/06/26 06:40 UTC NOAA

TAF KPVD 260538Z 2606/2706 20003KT 2SM BR OVC003
FM261200 36003KT 3SM BR BKN015
FM261300 36004KT P6SM BKN025
FM261400 36004KT P6SM BKN050
FM270200 15004KT P6SM BKN020
FM270300 15004KT P6SM BKN008

Example: see airport list